Middletown, RI

4:40 PM EDT on July 06, 2015 (GMT -0400)
Newport State | | Change Station
CLOSE
Current Station
Airport
Location: Newport,
Elevation: 171 ft
Nearby Weather Stations

Elev 171 ft 41.53 °N, 71.28 °W | Updated 47 minutes ago

Clear
Clear
77 °F
Feels Like 77 °F
N
9
Wind Variable Wind from South

Today
High -- | Low -- °F
--% Chance of Precip.
Yesterday
High -- | Low -- °F
Precip. -- in
5:17 AM 8:21 PM
Waning Gibbous, 72% visible
Pressure 30.15 in
Visibility 10.0 miles
Clouds Clear
Dew Point 66 °F
Humidity 69%
Rainfall 0.00 in
Snow Depth Not available.
UV 7 out of 12
Pollen 4.20 out of 12
Air Quality Not available.
Flu Activity Not available.
METAR KUUU 061953Z AUTO 19008KT 10SM CLR 25/19 A3015 RMK AO2 SLP209 T02500189

More Conditions Fewer Conditions

Pressure 30.15 in
Visibility 10.0 miles
Clouds Clear
Dew Point 66 °F
Humidity 69%
Rainfall 0.00 in
Snow Depth Not available.
UV 7 out of 12
Pollen 4.20 out of 12
Air Quality Not available.
Flu Activity Not available.
METAR KUUU 061953Z AUTO 19008KT 10SM CLR 25/19 A3015 RMK AO2 SLP209 T02500189

More Conditions Fewer Conditions

10-Day Weather Forecast

×

Almanac

Astronomy

Jul. 06, 2015 Rise Set
Actual Time
Civil Twilight
Nautical Twilight
Astronomical Twilight
Moon
Length of Visible Light
Length of Day
Tomorrow will be .
, % of the Moon is Illuminated

Today's Extremes

State Highs State Lows

Community

WunderPhotos

Upload Photos

1,835,638 photos uploaded!

WunderBlogs® & News

Nearby

Air Quality

  Air Quality AQ Index Pollutant
Not available.

Snow Depth

Station Depth Elevation

Earthquake Activity

City Distance Mag. Time & Date
Minimum magnitude displayed is 2.5.

Coastal Water Temperatures

Place Temperature

Stations

Nearby Weather Stations

Station Location Temp. Windchill Dew Point Humidity Wind Precip. Elev Updated Type